createdAt,value
2023-03-23T16:06:37.855Z,2.30
2023-03-23T16:16:48.709Z,4.20
2023-03-23T16:26:57.794Z,3.20
2023-03-23T16:37:07.172Z,2.80
2023-03-23T16:47:14.574Z,9.40
2023-03-23T16:57:22.315Z,6.30
2023-03-23T17:07:29.714Z,10.50
2023-03-23T17:17:36.510Z,58.50
2023-03-23T17:27:43.959Z,20.90
2023-03-23T17:37:51.753Z,25.40
2023-03-23T17:47:58.922Z,36.80
2023-03-23T17:58:06.459Z,83.10
2023-03-23T18:08:13.841Z,31.60
2023-03-23T18:18:21.159Z,59.70
2023-03-23T18:28:28.342Z,49.70
2023-03-23T18:38:37.538Z,44.50
2023-03-23T18:48:45.408Z,47.50
2023-03-23T18:58:54.498Z,61.80
2023-03-23T19:09:01.642Z,54.20
2023-03-23T19:19:08.672Z,51.20
2023-03-23T19:29:26.717Z,52.10
2023-03-23T19:39:34.618Z,42.60
2023-03-23T19:59:48.825Z,25.20
2023-03-23T20:09:56.092Z,24.50
2023-03-23T20:20:06.360Z,23.30
2023-03-23T20:30:11.762Z,19.90
2023-03-23T20:40:18.860Z,31.30
2023-03-23T20:50:25.273Z,31.70
2023-03-23T21:00:32.337Z,46.00
2023-03-23T21:10:39.586Z,26.00
2023-03-23T21:20:47.343Z,19.90
2023-03-23T21:30:55.336Z,20.50
2023-03-23T21:41:09.746Z,18.50
2023-03-23T21:51:18.520Z,14.30
2023-03-23T22:01:25.889Z,14.20
2023-03-23T22:11:33.721Z,12.10
2023-03-23T22:21:41.174Z,9.90
2023-03-23T22:31:48.568Z,9.80
2023-03-23T22:41:55.808Z,8.30
2023-03-23T22:52:02.805Z,10.10
2023-03-23T23:02:09.955Z,8.30
2023-03-23T23:12:18.466Z,11.50
2023-03-23T23:22:25.585Z,11.90
2023-03-23T23:32:34.160Z,11.20
2023-03-23T23:42:41.567Z,10.80
2023-03-23T23:52:50.363Z,9.80
